sensor_id;sensor_type;location;lat;lon;timestamp;P1;durP1;ratioP1;P2;durP2;ratioP2
1258;SDS011;619;51.472;6.628;2023-07-28T00:00:36;3.43;;;1.97;;
1258;SDS011;619;51.472;6.628;2023-07-28T00:03:04;2.40;;;1.80;;
1258;SDS011;619;51.472;6.628;2023-07-28T00:05:33;2.00;;;1.53;;
1258;SDS011;619;51.472;6.628;2023-07-28T00:08:00;4.93;;;1.67;;
1258;SDS011;619;51.472;6.628;2023-07-28T00:10:26;1.70;;;1.50;;
1258;SDS011;619;51.472;6.628;2023-07-28T00:12:51;2.70;;;1.90;;
1258;SDS011;619;51.472;6.628;2023-07-28T00:15:19;3.40;;;1.50;;
1258;SDS011;619;51.472;6.628;2023-07-28T00:17:45;4.67;;;1.80;;
1258;SDS011;619;51.472;6.628;2023-07-28T00:20:11;2.60;;;1.90;;
1258;SDS011;619;51.472;6.628;2023-07-28T00:22:36;6.33;;;1.80;;
1258;SDS011;619;51.472;6.628;2023-07-28T00:25:02;2.20;;;1.93;;
1258;SDS011;619;51.472;6.628;2023-07-28T00:27:28;3.37;;;1.80;;
1258;SDS011;619;51.472;6.628;2023-07-28T00:29:56;3.60;;;1.90;;
1258;SDS011;619;51.472;6.628;2023-07-28T00:32:21;2.40;;;1.80;;
1258;SDS011;619;51.472;6.628;2023-07-28T00:34:49;5.43;;;2.30;;
1258;SDS011;619;51.472;6.628;2023-07-28T00:37:15;2.43;;;1.70;;
1258;SDS011;619;51.472;6.628;2023-07-28T00:39:40;2.60;;;1.77;;
1258;SDS011;619;51.472;6.628;2023-07-28T00:42:06;2.00;;;1.60;;
1258;SDS011;619;51.472;6.628;2023-07-28T00:44:31;2.70;;;1.53;;
1258;SDS011;619;51.472;6.628;2023-07-28T00:46:57;3.10;;;2.10;;
1258;SDS011;619;51.472;6.628;2023-07-28T00:49:25;3.70;;;1.70;;
1258;SDS011;619;51.472;6.628;2023-07-28T00:51:51;2.20;;;2.00;;
1258;SDS011;619;51.472;6.628;2023-07-28T00:54:18;3.80;;;2.00;;
1258;SDS011;619;51.472;6.628;2023-07-28T00:56:44;3.10;;;2.40;;
1258;SDS011;619;51.472;6.628;2023-07-28T00:59:10;3.10;;;1.80;;
1258;SDS011;619;51.472;6.628;2023-07-28T01:01:36;5.50;;;2.00;;
1258;SDS011;619;51.472;6.628;2023-07-28T01:04:02;5.20;;;2.23;;
1258;SDS011;619;51.472;6.628;2023-07-28T01:06:37;2.17;;;1.93;;
1258;SDS011;619;51.472;6.628;2023-07-28T01:09:10;3.43;;;2.40;;
1258;SDS011;619;51.472;6.628;2023-07-28T01:11:57;3.33;;;2.10;;
1258;SDS011;619;51.472;6.628;2023-07-28T01:14:23;2.20;;;2.00;;
1258;SDS011;619;51.472;6.628;2023-07-28T01:16:51;2.20;;;2.00;;
1258;SDS011;619;51.472;6.628;2023-07-28T01:19:20;3.40;;;2.20;;
1258;SDS011;619;51.472;6.628;2023-07-28T01:21:54;2.87;;;2.00;;
1258;SDS011;619;51.472;6.628;2023-07-28T01:27:15;2.40;;;1.83;;
1258;SDS011;619;51.472;6.628;2023-07-28T01:29:44;2.10;;;1.67;;
1258;SDS011;619;51.472;6.628;2023-07-28T01:32:12;2.60;;;1.90;;
1258;SDS011;619;51.472;6.628;2023-07-28T01:34:41;2.90;;;2.00;;
1258;SDS011;619;51.472;6.628;2023-07-28T01:37:06;2.27;;;1.87;;
1258;SDS011;619;51.472;6.628;2023-07-28T01:39:34;2.80;;;1.87;;
1258;SDS011;619;51.472;6.628;2023-07-28T01:42:05;3.13;;;2.33;;
1258;SDS011;619;51.472;6.628;2023-07-28T01:44:31;2.10;;;1.90;;
1258;SDS011;619;51.472;6.628;2023-07-28T01:46:56;3.80;;;2.00;;
1258;SDS011;619;51.472;6.628;2023-07-28T01:49:27;2.30;;;2.10;;
1258;SDS011;619;51.472;6.628;2023-07-28T01:51:52;2.10;;;1.77;;
1258;SDS011;619;51.472;6.628;2023-07-28T01:54:20;1.90;;;1.70;;
1258;SDS011;619;51.472;6.628;2023-07-28T01:56:46;2.13;;;1.93;;
1258;SDS011;619;51.472;6.628;2023-07-28T01:59:11;3.60;;;2.40;;
1258;SDS011;619;51.472;6.628;2023-07-28T02:01:40;2.90;;;1.63;;
1258;SDS011;619;51.472;6.628;2023-07-28T02:04:08;3.30;;;2.23;;
1258;SDS011;619;51.472;6.628;2023-07-28T02:06:34;1.60;;;1.50;;
1258;SDS011;619;51.472;6.628;2023-07-28T02:09:00;2.40;;;2.20;;
1258;SDS011;619;51.472;6.628;2023-07-28T02:11:25;3.10;;;2.03;;
1258;SDS011;619;51.472;6.628;2023-07-28T02:13:53;2.77;;;1.97;;
1258;SDS011;619;51.472;6.628;2023-07-28T02:16:21;2.03;;;1.67;;
1258;SDS011;619;51.472;6.628;2023-07-28T02:18:49;2.53;;;2.07;;
1258;SDS011;619;51.472;6.628;2023-07-28T02:21:14;1.90;;;1.70;;
1258;SDS011;619;51.472;6.628;2023-07-28T02:23:40;1.90;;;1.70;;
1258;SDS011;619;51.472;6.628;2023-07-28T02:26:08;2.27;;;2.07;;
1258;SDS011;619;51.472;6.628;2023-07-28T02:28:34;2.10;;;1.90;;
1258;SDS011;619;51.472;6.628;2023-07-28T02:31:02;3.13;;;1.73;;
1258;SDS011;619;51.472;6.628;2023-07-28T02:33:30;2.73;;;1.67;;
1258;SDS011;619;51.472;6.628;2023-07-28T02:36:00;3.07;;;2.00;;
1258;SDS011;619;51.472;6.628;2023-07-28T02:38:25;1.93;;;1.70;;
1258;SDS011;619;51.472;6.628;2023-07-28T02:40:51;1.90;;;1.67;;
1258;SDS011;619;51.472;6.628;2023-07-28T02:43:17;2.10;;;1.90;;
1258;SDS011;619;51.472;6.628;2023-07-28T02:45:48;3.20;;;1.93;;
1258;SDS011;619;51.472;6.628;2023-07-28T02:48:18;2.50;;;1.80;;
1258;SDS011;619;51.472;6.628;2023-07-28T02:50:49;2.20;;;2.00;;
1258;SDS011;619;51.472;6.628;2023-07-28T02:53:16;3.93;;;1.90;;
1258;SDS011;619;51.472;6.628;2023-07-28T02:55:42;3.80;;;2.50;;
1258;SDS011;619;51.472;6.628;2023-07-28T02:58:08;1.97;;;1.77;;
1258;SDS011;619;51.472;6.628;2023-07-28T03:00:38;3.20;;;2.27;;
1258;SDS011;619;51.472;6.628;2023-07-28T03:03:04;2.97;;;2.50;;
1258;SDS011;619;51.472;6.628;2023-07-28T03:05:31;2.93;;;2.30;;
1258;SDS011;619;51.472;6.628;2023-07-28T03:07:56;2.53;;;2.00;;
1258;SDS011;619;51.472;6.628;2023-07-28T03:10:22;4.00;;;2.30;;
1258;SDS011;619;51.472;6.628;2023-07-28T03:12:50;3.00;;;2.40;;
1258;SDS011;619;51.472;6.628;2023-07-28T03:15:15;5.17;;;1.93;;
1258;SDS011;619;51.472;6.628;2023-07-28T03:17:41;1.77;;;1.67;;
1258;SDS011;619;51.472;6.628;2023-07-28T03:20:07;2.20;;;2.00;;
1258;SDS011;619;51.472;6.628;2023-07-28T03:22:35;2.10;;;1.90;;
1258;SDS011;619;51.472;6.628;2023-07-28T03:25:03;3.90;;;2.40;;
1258;SDS011;619;51.472;6.628;2023-07-28T03:27:29;2.67;;;2.00;;
1258;SDS011;619;51.472;6.628;2023-07-28T03:30:00;2.93;;;2.10;;
1258;SDS011;619;51.472;6.628;2023-07-28T03:32:26;3.80;;;1.90;;
1258;SDS011;619;51.472;6.628;2023-07-28T03:34:53;2.67;;;2.20;;
1258;SDS011;619;51.472;6.628;2023-07-28T03:37:21;6.20;;;2.90;;
1258;SDS011;619;51.472;6.628;2023-07-28T03:39:49;2.23;;;2.03;;
1258;SDS011;619;51.472;6.628;2023-07-28T03:42:14;2.50;;;2.30;;
1258;SDS011;619;51.472;6.628;2023-07-28T03:44:40;2.57;;;2.33;;
1258;SDS011;619;51.472;6.628;2023-07-28T03:47:06;3.37;;;2.37;;
1258;SDS011;619;51.472;6.628;2023-07-28T03:49:34;4.10;;;2.43;;
1258;SDS011;619;51.472;6.628;2023-07-28T03:52:04;2.37;;;1.90;;
1258;SDS011;619;51.472;6.628;2023-07-28T03:54:34;4.90;;;2.77;;
1258;SDS011;619;51.472;6.628;2023-07-28T03:57:05;2.50;;;2.10;;
1258;SDS011;619;51.472;6.628;2023-07-28T03:59:33;2.97;;;2.67;;
1258;SDS011;619;51.472;6.628;2023-07-28T04:02:01;2.60;;;2.40;;
1258;SDS011;619;51.472;6.628;2023-07-28T04:04:29;2.63;;;2.37;;
1258;SDS011;619;51.472;6.628;2023-07-28T04:06:57;2.50;;;2.27;;
1258;SDS011;619;51.472;6.628;2023-07-28T04:09:23;2.70;;;2.13;;
1258;SDS011;619;51.472;6.628;2023-07-28T04:11:48;3.80;;;2.13;;
1258;SDS011;619;51.472;6.628;2023-07-28T04:14:14;3.00;;;2.20;;
1258;SDS011;619;51.472;6.628;2023-07-28T04:16:40;2.60;;;2.40;;
1258;SDS011;619;51.472;6.628;2023-07-28T04:19:08;3.70;;;2.07;;
1258;SDS011;619;51.472;6.628;2023-07-28T04:21:34;3.93;;;2.40;;
1258;SDS011;619;51.472;6.628;2023-07-28T04:23:59;2.30;;;1.80;;
1258;SDS011;619;51.472;6.628;2023-07-28T04:26:27;3.37;;;2.57;;
1258;SDS011;619;51.472;6.628;2023-07-28T04:28:53;2.10;;;1.70;;
1258;SDS011;619;51.472;6.628;2023-07-28T04:31:18;2.80;;;2.50;;
1258;SDS011;619;51.472;6.628;2023-07-28T04:33:49;2.67;;;2.20;;
1258;SDS011;619;51.472;6.628;2023-07-28T04:36:17;2.77;;;2.10;;
1258;SDS011;619;51.472;6.628;2023-07-28T04:38:45;2.60;;;2.10;;
1258;SDS011;619;51.472;6.628;2023-07-28T04:41:10;4.50;;;1.83;;
1258;SDS011;619;51.472;6.628;2023-07-28T04:43:41;2.10;;;1.83;;
1258;SDS011;619;51.472;6.628;2023-07-28T04:46:09;2.13;;;1.93;;
1258;SDS011;619;51.472;6.628;2023-07-28T04:48:35;4.07;;;2.07;;
1258;SDS011;619;51.472;6.628;2023-07-28T04:51:03;1.70;;;1.60;;
1258;SDS011;619;51.472;6.628;2023-07-28T04:53:31;3.27;;;1.60;;
1258;SDS011;619;51.472;6.628;2023-07-28T04:55:56;1.97;;;1.70;;
1258;SDS011;619;51.472;6.628;2023-07-28T04:58:26;2.43;;;1.60;;
1258;SDS011;619;51.472;6.628;2023-07-28T05:00:52;3.60;;;1.67;;
1258;SDS011;619;51.472;6.628;2023-07-28T05:03:20;2.90;;;2.00;;
1258;SDS011;619;51.472;6.628;2023-07-28T05:05:46;2.17;;;1.90;;
1258;SDS011;619;51.472;6.628;2023-07-28T05:08:14;1.63;;;1.53;;
1258;SDS011;619;51.472;6.628;2023-07-28T05:10:42;2.67;;;2.47;;
1258;SDS011;619;51.472;6.628;2023-07-28T05:13:10;3.93;;;2.10;;
1258;SDS011;619;51.472;6.628;2023-07-28T05:15:35;2.90;;;1.60;;
1258;SDS011;619;51.472;6.628;2023-07-28T05:18:01;2.73;;;2.13;;
1258;SDS011;619;51.472;6.628;2023-07-28T05:20:29;2.73;;;2.50;;
1258;SDS011;619;51.472;6.628;2023-07-28T05:22:59;3.37;;;2.10;;
1258;SDS011;619;51.472;6.628;2023-07-28T05:25:25;2.67;;;1.93;;
1258;SDS011;619;51.472;6.628;2023-07-28T05:27:55;2.40;;;2.00;;
1258;SDS011;619;51.472;6.628;2023-07-28T05:30:20;2.90;;;2.33;;
1258;SDS011;619;51.472;6.628;2023-07-28T05:32:47;3.50;;;2.43;;
1258;SDS011;619;51.472;6.628;2023-07-28T05:35:13;5.23;;;2.70;;
1258;SDS011;619;51.472;6.628;2023-07-28T05:37:41;3.80;;;2.67;;
1258;SDS011;619;51.472;6.628;2023-07-28T05:40:07;2.87;;;2.60;;
1258;SDS011;619;51.472;6.628;2023-07-28T05:42:33;4.37;;;3.03;;
1258;SDS011;619;51.472;6.628;2023-07-28T05:45:01;3.20;;;2.87;;
1258;SDS011;619;51.472;6.628;2023-07-28T05:47:29;4.40;;;3.17;;
1258;SDS011;619;51.472;6.628;2023-07-28T05:49:57;3.83;;;3.23;;
1258;SDS011;619;51.472;6.628;2023-07-28T05:52:25;4.00;;;2.83;;
1258;SDS011;619;51.472;6.628;2023-07-28T05:54:50;5.00;;;4.30;;
1258;SDS011;619;51.472;6.628;2023-07-28T05:57:16;4.03;;;3.57;;
1258;SDS011;619;51.472;6.628;2023-07-28T05:59:42;7.00;;;3.37;;
1258;SDS011;619;51.472;6.628;2023-07-28T06:02:10;3.67;;;3.37;;
1258;SDS011;619;51.472;6.628;2023-07-28T06:04:35;3.87;;;3.23;;
1258;SDS011;619;51.472;6.628;2023-07-28T06:07:01;4.10;;;3.70;;
1258;SDS011;619;51.472;6.628;2023-07-28T06:09:27;3.70;;;3.37;;
1258;SDS011;619;51.472;6.628;2023-07-28T06:11:53;3.90;;;3.30;;
1258;SDS011;619;51.472;6.628;2023-07-28T06:14:21;6.37;;;4.00;;
1258;SDS011;619;51.472;6.628;2023-07-28T06:16:46;4.23;;;3.83;;
1258;SDS011;619;51.472;6.628;2023-07-28T06:19:12;7.20;;;4.33;;
1258;SDS011;619;51.472;6.628;2023-07-28T06:21:37;4.00;;;3.40;;
1258;SDS011;619;51.472;6.628;2023-07-28T06:24:05;3.90;;;3.60;;
1258;SDS011;619;51.472;6.628;2023-07-28T06:26:31;3.70;;;3.30;;
1258;SDS011;619;51.472;6.628;2023-07-28T06:28:56;4.10;;;3.70;;
1258;SDS011;619;51.472;6.628;2023-07-28T06:31:22;3.90;;;3.20;;
1258;SDS011;619;51.472;6.628;2023-07-28T06:33:47;8.57;;;4.10;;
1258;SDS011;619;51.472;6.628;2023-07-28T06:36:13;4.80;;;3.60;;
1258;SDS011;619;51.472;6.628;2023-07-28T06:38:44;4.63;;;4.23;;
1258;SDS011;619;51.472;6.628;2023-07-28T06:41:15;4.40;;;3.93;;
1258;SDS011;619;51.472;6.628;2023-07-28T06:43:41;5.03;;;4.53;;
1258;SDS011;619;51.472;6.628;2023-07-28T06:46:07;4.50;;;4.10;;
1258;SDS011;619;51.472;6.628;2023-07-28T06:48:34;5.53;;;5.03;;
1258;SDS011;619;51.472;6.628;2023-07-28T06:50:59;6.00;;;5.40;;
1258;SDS011;619;51.472;6.628;2023-07-28T06:53:25;5.93;;;5.33;;
1258;SDS011;619;51.472;6.628;2023-07-28T06:55:50;7.07;;;5.93;;
1258;SDS011;619;51.472;6.628;2023-07-28T06:58:21;7.03;;;6.37;;
1258;SDS011;619;51.472;6.628;2023-07-28T07:00:47;7.50;;;6.80;;
1258;SDS011;619;51.472;6.628;2023-07-28T07:03:13;7.57;;;6.87;;
1258;SDS011;619;51.472;6.628;2023-07-28T07:05:39;9.07;;;6.43;;
1258;SDS011;619;51.472;6.628;2023-07-28T07:08:08;8.10;;;7.27;;
1258;SDS011;619;51.472;6.628;2023-07-28T07:10:34;8.73;;;7.90;;
1258;SDS011;619;51.472;6.628;2023-07-28T07:13:04;11.50;;;9.20;;
1258;SDS011;619;51.472;6.628;2023-07-28T07:15:33;10.70;;;8.97;;
1258;SDS011;619;51.472;6.628;2023-07-28T07:18:04;10.90;;;8.03;;
1258;SDS011;619;51.472;6.628;2023-07-28T07:20:33;9.33;;;8.33;;
1258;SDS011;619;51.472;6.628;2023-07-28T07:23:01;10.83;;;7.87;;
1258;SDS011;619;51.472;6.628;2023-07-28T07:25:30;10.40;;;9.40;;
1258;SDS011;619;51.472;6.628;2023-07-28T07:27:55;10.00;;;8.60;;
1258;SDS011;619;51.472;6.628;2023-07-28T07:30:21;8.60;;;7.80;;
1258;SDS011;619;51.472;6.628;2023-07-28T07:32:50;9.50;;;8.50;;
1258;SDS011;619;51.472;6.628;2023-07-28T07:35:15;9.87;;;8.87;;
1258;SDS011;619;51.472;6.628;2023-07-28T07:37:43;8.60;;;7.80;;
1258;SDS011;619;51.472;6.628;2023-07-28T07:40:11;8.47;;;7.60;;
1258;SDS011;619;51.472;6.628;2023-07-28T07:42:42;8.43;;;7.63;;
1258;SDS011;619;51.472;6.628;2023-07-28T07:45:11;8.50;;;7.67;;
1258;SDS011;619;51.472;6.628;2023-07-28T07:47:37;7.60;;;6.90;;
1258;SDS011;619;51.472;6.628;2023-07-28T07:50:03;8.10;;;6.90;;
1258;SDS011;619;51.472;6.628;2023-07-28T07:52:30;8.17;;;7.37;;
1258;SDS011;619;51.472;6.628;2023-07-28T07:54:55;7.67;;;6.87;;
1258;SDS011;619;51.472;6.628;2023-07-28T07:57:21;7.53;;;6.07;;
1258;SDS011;619;51.472;6.628;2023-07-28T07:59:46;6.57;;;5.97;;
1258;SDS011;619;51.472;6.628;2023-07-28T08:02:14;6.03;;;5.50;;
1258;SDS011;619;51.472;6.628;2023-07-28T08:04:40;5.93;;;5.43;;
1258;SDS011;619;51.472;6.628;2023-07-28T08:07:05;8.43;;;5.73;;
1258;SDS011;619;51.472;6.628;2023-07-28T08:09:33;5.33;;;4.83;;
1258;SDS011;619;51.472;6.628;2023-07-28T08:12:04;4.70;;;4.30;;
1258;SDS011;619;51.472;6.628;2023-07-28T08:14:30;4.43;;;4.03;;
1258;SDS011;619;51.472;6.628;2023-07-28T08:16:55;4.70;;;4.00;;
1258;SDS011;619;51.472;6.628;2023-07-28T08:19:21;3.87;;;3.37;;
1258;SDS011;619;51.472;6.628;2023-07-28T08:21:47;5.03;;;3.47;;
1258;SDS011;619;51.472;6.628;2023-07-28T08:24:16;3.13;;;2.60;;
1258;SDS011;619;51.472;6.628;2023-07-28T08:26:47;3.60;;;3.30;;
1258;SDS011;619;51.472;6.628;2023-07-28T08:29:14;3.37;;;3.07;;
1258;SDS011;619;51.472;6.628;2023-07-28T08:31:40;2.73;;;2.53;;
1258;SDS011;619;51.472;6.628;2023-07-28T08:34:13;2.77;;;2.57;;
1258;SDS011;619;51.472;6.628;2023-07-28T08:36:38;2.47;;;2.10;;
1258;SDS011;619;51.472;6.628;2023-07-28T08:39:04;2.43;;;2.17;;
1258;SDS011;619;51.472;6.628;2023-07-28T08:41:30;2.53;;;2.33;;
1258;SDS011;619;51.472;6.628;2023-07-28T08:43:58;3.30;;;2.30;;
1258;SDS011;619;51.472;6.628;2023-07-28T08:46:23;2.77;;;2.50;;
1258;SDS011;619;51.472;6.628;2023-07-28T08:48:49;2.50;;;2.30;;
1258;SDS011;619;51.472;6.628;2023-07-28T08:51:15;3.00;;;2.63;;
1258;SDS011;619;51.472;6.628;2023-07-28T08:53:40;2.43;;;2.20;;
1258;SDS011;619;51.472;6.628;2023-07-28T08:56:11;3.50;;;3.10;;
1258;SDS011;619;51.472;6.628;2023-07-28T08:58:36;1.80;;;1.70;;
1258;SDS011;619;51.472;6.628;2023-07-28T09:01:05;2.50;;;2.13;;
1258;SDS011;619;51.472;6.628;2023-07-28T09:03:32;2.50;;;2.30;;
1258;SDS011;619;51.472;6.628;2023-07-28T09:06:05;2.20;;;2.00;;
1258;SDS011;619;51.472;6.628;2023-07-28T09:08:33;1.70;;;1.60;;
1258;SDS011;619;51.472;6.628;2023-07-28T09:11:05;1.90;;;1.63;;
1258;SDS011;619;51.472;6.628;2023-07-28T09:13:41;1.90;;;1.70;;
1258;SDS011;619;51.472;6.628;2023-07-28T09:16:18;2.63;;;2.33;;
1258;SDS011;619;51.472;6.628;2023-07-28T09:18:47;2.60;;;2.40;;
1258;SDS011;619;51.472;6.628;2023-07-28T09:21:20;3.17;;;2.63;;
1258;SDS011;619;51.472;6.628;2023-07-28T09:23:47;3.03;;;2.63;;
1258;SDS011;619;51.472;6.628;2023-07-28T09:26:16;3.13;;;2.83;;
1258;SDS011;619;51.472;6.628;2023-07-28T09:28:44;3.70;;;3.40;;
1258;SDS011;619;51.472;6.628;2023-07-28T09:31:10;3.00;;;2.80;;
1258;SDS011;619;51.472;6.628;2023-07-28T09:33:36;3.97;;;2.60;;
1258;SDS011;619;51.472;6.628;2023-07-28T09:38:41;3.60;;;3.30;;
1258;SDS011;619;51.472;6.628;2023-07-28T09:41:07;3.90;;;3.60;;
1258;SDS011;619;51.472;6.628;2023-07-28T09:43:38;3.80;;;3.37;;
1258;SDS011;619;51.472;6.628;2023-07-28T09:46:06;5.07;;;4.00;;
1258;SDS011;619;51.472;6.628;2023-07-28T09:48:37;4.10;;;3.53;;
1258;SDS011;619;51.472;6.628;2023-07-28T09:51:08;10.40;;;3.57;;
1258;SDS011;619;51.472;6.628;2023-07-28T09:53:44;3.67;;;3.40;;
1258;SDS011;619;51.472;6.628;2023-07-28T09:56:16;4.30;;;3.90;;
1258;SDS011;619;51.472;6.628;2023-07-28T09:58:50;4.17;;;3.80;;
1258;SDS011;619;51.472;6.628;2023-07-28T10:01:17;4.70;;;3.80;;
1258;SDS011;619;51.472;6.628;2023-07-28T10:03:44;4.50;;;3.67;;
1258;SDS011;619;51.472;6.628;2023-07-28T10:06:10;3.57;;;3.10;;
1258;SDS011;619;51.472;6.628;2023-07-28T10:08:37;5.43;;;4.23;;
1258;SDS011;619;51.472;6.628;2023-07-28T10:11:08;4.17;;;3.40;;
1258;SDS011;619;51.472;6.628;2023-07-28T10:13:40;3.77;;;3.40;;
1258;SDS011;619;51.472;6.628;2023-07-28T10:16:09;3.60;;;3.30;;
1258;SDS011;619;51.472;6.628;2023-07-28T10:18:39;3.23;;;3.03;;
1258;SDS011;619;51.472;6.628;2023-07-28T10:21:09;3.27;;;3.00;;
1258;SDS011;619;51.472;6.628;2023-07-28T10:23:40;3.23;;;2.93;;
1258;SDS011;619;51.472;6.628;2023-07-28T10:26:06;2.80;;;2.60;;
1258;SDS011;619;51.472;6.628;2023-07-28T10:28:35;2.67;;;2.47;;
1258;SDS011;619;51.472;6.628;2023-07-28T10:31:09;2.50;;;2.30;;
1258;SDS011;619;51.472;6.628;2023-07-28T10:33:44;3.07;;;2.87;;
1258;SDS011;619;51.472;6.628;2023-07-28T10:36:31;3.20;;;2.90;;
1258;SDS011;619;51.472;6.628;2023-07-28T10:41:37;2.63;;;2.43;;
1258;SDS011;619;51.472;6.628;2023-07-28T10:44:02;2.67;;;2.47;;
1258;SDS011;619;51.472;6.628;2023-07-28T10:46:28;2.23;;;2.03;;
1258;SDS011;619;51.472;6.628;2023-07-28T10:48:57;3.77;;;1.90;;
1258;SDS011;619;51.472;6.628;2023-07-28T10:51:29;1.80;;;1.60;;
1258;SDS011;619;51.472;6.628;2023-07-28T10:53:59;2.07;;;1.87;;
1258;SDS011;619;51.472;6.628;2023-07-28T10:56:25;2.33;;;1.70;;
1258;SDS011;619;51.472;6.628;2023-07-28T11:01:32;2.30;;;2.07;;
1258;SDS011;619;51.472;6.628;2023-07-28T11:04:14;1.77;;;1.63;;
1258;SDS011;619;51.472;6.628;2023-07-28T11:06:42;3.40;;;1.80;;
1258;SDS011;619;51.472;6.628;2023-07-28T11:09:10;2.17;;;1.57;;
1258;SDS011;619;51.472;6.628;2023-07-28T11:11:39;2.00;;;1.67;;
1258;SDS011;619;51.472;6.628;2023-07-28T11:14:06;2.43;;;2.00;;
1258;SDS011;619;51.472;6.628;2023-07-28T11:16:35;2.83;;;2.13;;
1258;SDS011;619;51.472;6.628;2023-07-28T11:19:09;1.90;;;1.70;;
1258;SDS011;619;51.472;6.628;2023-07-28T11:21:49;2.77;;;1.53;;
1258;SDS011;619;51.472;6.628;2023-07-28T11:24:18;2.03;;;1.70;;
1258;SDS011;619;51.472;6.628;2023-07-28T11:26:47;1.63;;;1.50;;
1258;SDS011;619;51.472;6.628;2023-07-28T11:29:14;1.93;;;1.10;;
1258;SDS011;619;51.472;6.628;2023-07-28T11:31:43;1.93;;;1.20;;
1258;SDS011;619;51.472;6.628;2023-07-28T11:34:14;1.70;;;1.00;;
1258;SDS011;619;51.472;6.628;2023-07-28T11:36:43;2.60;;;1.20;;
1258;SDS011;619;51.472;6.628;2023-07-28T11:39:11;1.00;;;0.70;;
1258;SDS011;619;51.472;6.628;2023-07-28T11:41:39;1.30;;;0.60;;
1258;SDS011;619;51.472;6.628;2023-07-28T11:44:06;1.60;;;0.60;;
1258;SDS011;619;51.472;6.628;2023-07-28T11:49:27;1.30;;;0.70;;
1258;SDS011;619;51.472;6.628;2023-07-28T11:51:53;2.50;;;0.80;;
1258;SDS011;619;51.472;6.628;2023-07-28T11:54:24;1.10;;;0.87;;
1258;SDS011;619;51.472;6.628;2023-07-28T11:56:54;1.53;;;1.00;;
1258;SDS011;619;51.472;6.628;2023-07-28T11:59:22;1.43;;;1.17;;
1258;SDS011;619;51.472;6.628;2023-07-28T12:02:00;2.40;;;0.90;;
1258;SDS011;619;51.472;6.628;2023-07-28T12:04:36;1.60;;;0.90;;
1258;SDS011;619;51.472;6.628;2023-07-28T12:07:15;1.57;;;1.00;;
1258;SDS011;619;51.472;6.628;2023-07-28T12:12:23;1.37;;;1.10;;
1258;SDS011;619;51.472;6.628;2023-07-28T12:14:54;1.97;;;1.00;;
1258;SDS011;619;51.472;6.628;2023-07-28T12:17:21;1.20;;;1.03;;
1258;SDS011;619;51.472;6.628;2023-07-28T12:19:58;2.33;;;1.10;;
1258;SDS011;619;51.472;6.628;2023-07-28T12:22:27;2.70;;;0.90;;
1258;SDS011;619;51.472;6.628;2023-07-28T12:24:53;2.33;;;1.20;;
1258;SDS011;619;51.472;6.628;2023-07-28T12:27:19;1.40;;;1.10;;
1258;SDS011;619;51.472;6.628;2023-07-28T12:29:48;2.77;;;1.30;;
1258;SDS011;619;51.472;6.628;2023-07-28T12:32:14;1.33;;;0.93;;
1258;SDS011;619;51.472;6.628;2023-07-28T12:34:40;1.10;;;0.80;;
1258;SDS011;619;51.472;6.628;2023-07-28T12:37:05;1.60;;;0.93;;
1258;SDS011;619;51.472;6.628;2023-07-28T12:39:31;1.20;;;0.80;;
1258;SDS011;619;51.472;6.628;2023-07-28T12:41:58;1.27;;;1.10;;
1258;SDS011;619;51.472;6.628;2023-07-28T12:44:26;1.10;;;0.70;;
1258;SDS011;619;51.472;6.628;2023-07-28T12:46:52;2.23;;;0.70;;
1258;SDS011;619;51.472;6.628;2023-07-28T12:49:20;1.20;;;0.80;;
1258;SDS011;619;51.472;6.628;2023-07-28T12:51:46;1.10;;;0.90;;
1258;SDS011;619;51.472;6.628;2023-07-28T12:54:11;1.93;;;1.20;;
1258;SDS011;619;51.472;6.628;2023-07-28T12:56:42;1.50;;;0.90;;
1258;SDS011;619;51.472;6.628;2023-07-28T12:59:07;1.67;;;0.80;;
1258;SDS011;619;51.472;6.628;2023-07-28T13:01:35;1.27;;;0.90;;
1258;SDS011;619;51.472;6.628;2023-07-28T13:04:02;1.77;;;0.80;;
1258;SDS011;619;51.472;6.628;2023-07-28T13:06:27;1.77;;;1.00;;
1258;SDS011;619;51.472;6.628;2023-07-28T13:08:55;1.20;;;0.97;;
1258;SDS011;619;51.472;6.628;2023-07-28T13:11:28;1.20;;;0.80;;
1258;SDS011;619;51.472;6.628;2023-07-28T13:13:56;1.20;;;1.00;;
1258;SDS011;619;51.472;6.628;2023-07-28T13:16:24;1.30;;;0.80;;
1258;SDS011;619;51.472;6.628;2023-07-28T13:18:52;1.63;;;0.90;;
1258;SDS011;619;51.472;6.628;2023-07-28T13:21:18;1.10;;;0.80;;
1258;SDS011;619;51.472;6.628;2023-07-28T13:23:48;1.50;;;1.00;;
1258;SDS011;619;51.472;6.628;2023-07-28T13:26:14;3.93;;;3.47;;
1258;SDS011;619;51.472;6.628;2023-07-28T13:28:42;13.57;;;12.13;;
1258;SDS011;619;51.472;6.628;2023-07-28T13:31:12;2.17;;;1.07;;
1258;SDS011;619;51.472;6.628;2023-07-28T13:33:40;2.80;;;1.07;;
1258;SDS011;619;51.472;6.628;2023-07-28T13:36:06;2.17;;;1.30;;
1258;SDS011;619;51.472;6.628;2023-07-28T13:38:34;1.40;;;0.80;;
1258;SDS011;619;51.472;6.628;2023-07-28T13:41:04;1.30;;;1.13;;
1258;SDS011;619;51.472;6.628;2023-07-28T13:43:30;3.20;;;1.00;;
1258;SDS011;619;51.472;6.628;2023-07-28T13:45:56;2.10;;;1.13;;
1258;SDS011;619;51.472;6.628;2023-07-28T13:48:23;1.73;;;1.10;;
1258;SDS011;619;51.472;6.628;2023-07-28T13:50:48;2.53;;;1.30;;
1258;SDS011;619;51.472;6.628;2023-07-28T13:53:16;1.60;;;0.90;;
1258;SDS011;619;51.472;6.628;2023-07-28T13:55:44;3.33;;;1.00;;
1258;SDS011;619;51.472;6.628;2023-07-28T13:58:10;1.30;;;0.70;;
1258;SDS011;619;51.472;6.628;2023-07-28T14:00:37;1.57;;;1.00;;
1258;SDS011;619;51.472;6.628;2023-07-28T14:03:03;1.33;;;0.90;;
1258;SDS011;619;51.472;6.628;2023-07-28T14:05:29;1.47;;;1.00;;
1258;SDS011;619;51.472;6.628;2023-07-28T14:07:57;1.97;;;0.90;;
1258;SDS011;619;51.472;6.628;2023-07-28T14:10:23;1.90;;;1.37;;
1258;SDS011;619;51.472;6.628;2023-07-28T14:12:51;2.77;;;1.00;;
1258;SDS011;619;51.472;6.628;2023-07-28T14:15:16;1.60;;;1.00;;
1258;SDS011;619;51.472;6.628;2023-07-28T14:17:42;2.30;;;1.27;;
1258;SDS011;619;51.472;6.628;2023-07-28T14:20:10;2.17;;;1.10;;
1258;SDS011;619;51.472;6.628;2023-07-28T14:22:36;1.47;;;1.07;;
1258;SDS011;619;51.472;6.628;2023-07-28T14:25:02;1.50;;;1.10;;
1258;SDS011;619;51.472;6.628;2023-07-28T14:27:28;1.57;;;1.10;;
1258;SDS011;619;51.472;6.628;2023-07-28T14:29:56;2.20;;;1.30;;
1258;SDS011;619;51.472;6.628;2023-07-28T14:32:26;1.57;;;1.00;;
1258;SDS011;619;51.472;6.628;2023-07-28T14:34:52;1.50;;;0.90;;
1258;SDS011;619;51.472;6.628;2023-07-28T14:37:18;1.47;;;1.07;;
1258;SDS011;619;51.472;6.628;2023-07-28T14:39:47;1.63;;;1.40;;
1258;SDS011;619;51.472;6.628;2023-07-28T14:42:12;1.63;;;1.20;;
1258;SDS011;619;51.472;6.628;2023-07-28T14:44:38;1.50;;;1.10;;
1258;SDS011;619;51.472;6.628;2023-07-28T14:47:03;2.13;;;1.53;;
1258;SDS011;619;51.472;6.628;2023-07-28T14:49:29;1.97;;;1.20;;
1258;SDS011;619;51.472;6.628;2023-07-28T14:51:57;2.53;;;1.13;;
1258;SDS011;619;51.472;6.628;2023-07-28T14:54:25;1.90;;;1.30;;
1258;SDS011;619;51.472;6.628;2023-07-28T14:56:53;1.33;;;1.13;;
1258;SDS011;619;51.472;6.628;2023-07-28T14:59:21;5.10;;;1.30;;
1258;SDS011;619;51.472;6.628;2023-07-28T15:01:47;3.93;;;1.50;;
1258;SDS011;619;51.472;6.628;2023-07-28T15:04:12;1.83;;;1.17;;
1258;SDS011;619;51.472;6.628;2023-07-28T15:06:43;3.17;;;1.30;;
1258;SDS011;619;51.472;6.628;2023-07-28T15:09:13;4.20;;;1.50;;
1258;SDS011;619;51.472;6.628;2023-07-28T15:11:39;1.63;;;1.30;;
1258;SDS011;619;51.472;6.628;2023-07-28T15:14:09;1.70;;;1.20;;
1258;SDS011;619;51.472;6.628;2023-07-28T15:16:34;1.53;;;1.00;;
1258;SDS011;619;51.472;6.628;2023-07-28T15:19:00;1.30;;;1.07;;
1258;SDS011;619;51.472;6.628;2023-07-28T15:21:25;1.30;;;0.90;;
1258;SDS011;619;51.472;6.628;2023-07-28T15:23:54;1.90;;;1.27;;
1258;SDS011;619;51.472;6.628;2023-07-28T15:26:20;1.50;;;1.23;;
1258;SDS011;619;51.472;6.628;2023-07-28T15:28:46;2.63;;;1.80;;
1258;SDS011;619;51.472;6.628;2023-07-28T15:31:11;7.67;;;1.57;;
1258;SDS011;619;51.472;6.628;2023-07-28T15:33:39;2.30;;;1.30;;
1258;SDS011;619;51.472;6.628;2023-07-28T15:36:05;1.50;;;1.23;;
1258;SDS011;619;51.472;6.628;2023-07-28T15:38:33;1.80;;;1.50;;
1258;SDS011;619;51.472;6.628;2023-07-28T15:40:59;1.80;;;1.53;;
1258;SDS011;619;51.472;6.628;2023-07-28T15:43:24;2.27;;;1.53;;
1258;SDS011;619;51.472;6.628;2023-07-28T15:45:50;3.33;;;1.70;;
1258;SDS011;619;51.472;6.628;2023-07-28T15:48:19;5.40;;;2.43;;